createdAt,value
2018-10-21T09:20:14.867Z,12.5
2018-10-21T09:25:17.441Z,12.3
2018-10-21T09:30:19.767Z,12.5
2018-10-21T09:35:22.229Z,12.9
2018-10-21T09:40:24.678Z,13.4
2018-10-21T09:45:27.147Z,13.5
2018-10-21T09:55:32.086Z,13
2018-10-21T10:00:34.525Z,12.7
2018-10-21T10:05:36.959Z,12.6
2018-10-21T10:10:39.455Z,12.5
2018-10-21T10:15:41.887Z,12.7
2018-10-21T10:20:44.362Z,12.9
2018-10-21T10:25:46.836Z,13.3
2018-10-21T10:30:49.259Z,13.7
2018-10-21T10:35:51.717Z,13.5
2018-10-21T10:40:54.190Z,13.2
2018-10-21T10:45:56.652Z,13.2
2018-10-21T10:50:59.093Z,13.5
2018-10-21T10:56:01.557Z,14
2018-10-21T11:01:04.077Z,14.6
2018-10-21T11:06:06.533Z,14.8
2018-10-21T11:11:08.919Z,14.3
2018-10-21T11:16:11.441Z,13.8
2018-10-21T11:21:13.828Z,13.2
2018-10-21T11:26:16.287Z,12.7
2018-10-21T11:31:18.756Z,12.7
2018-10-21T11:36:21.245Z,13.1
2018-10-21T11:41:23.660Z,13.8
2018-10-21T11:46:26.223Z,14.5
2018-10-21T11:51:28.603Z,14.9
2018-10-21T11:56:31.050Z,15.1
2018-10-21T12:01:33.497Z,15.3
2018-10-21T12:06:35.960Z,15.2
2018-10-21T12:11:38.449Z,14.7
2018-10-21T12:16:40.881Z,14.9
2018-10-21T12:21:43.359Z,14.8
2018-10-21T12:26:45.818Z,14.7
2018-10-21T12:31:48.282Z,14.7
2018-10-21T12:36:50.703Z,14.8
2018-10-21T12:41:53.162Z,14.6
2018-10-21T12:46:55.623Z,14.5
2018-10-21T12:51:58.132Z,14.4
2018-10-21T12:57:00.537Z,14.2
2018-10-21T13:02:03.019Z,14.3
2018-10-21T13:07:05.476Z,14.1
2018-10-21T13:12:07.907Z,14.1
2018-10-21T13:17:10.360Z,14.2
2018-10-21T13:22:12.898Z,14.3
2018-10-21T13:27:15.282Z,14.2
2018-10-21T13:32:17.745Z,14.1
2018-10-21T13:37:20.208Z,14
2018-10-21T13:42:22.653Z,13.9
2018-10-21T13:47:25.116Z,13.7
2018-10-21T13:52:27.575Z,13.7
2018-10-21T13:57:30.035Z,13.8
2018-10-21T14:02:32.506Z,13.9
2018-10-21T14:07:34.945Z,13.9
2018-10-21T14:12:37.392Z,13.9
2018-10-21T14:17:39.855Z,13.9
2018-10-21T14:22:42.317Z,13.8
2018-10-21T14:27:44.835Z,13.6
2018-10-21T14:32:47.221Z,13.6
2018-10-21T14:37:49.756Z,13.6
2018-10-21T14:42:52.151Z,13.5
2018-10-21T14:47:54.630Z,13.3
2018-10-21T14:52:57.123Z,13.1
2018-10-21T14:57:59.520Z,13.1
2018-10-21T15:03:02.021Z,12.9
2018-10-21T15:08:04.448Z,12.9
2018-10-21T15:13:06.890Z,12.8
2018-10-21T15:18:09.420Z,12.5
2018-10-21T15:23:11.854Z,12.3
2018-10-21T15:28:14.407Z,12.2
2018-10-21T15:33:16.743Z,11.8
2018-10-21T15:38:19.267Z,11.5
2018-10-21T15:43:21.635Z,11.3
2018-10-21T15:48:24.099Z,11.2
